sensor_id;sensor_type;location;lat;lon;timestamp;P1;durP1;ratioP1;P2;durP2;ratioP2
47737;SDS011;33502;47.182;27.506;2022-12-24T00:01:24;97.47;;;46.38;;
47737;SDS011;33502;47.182;27.506;2022-12-24T00:03:49;103.30;;;44.00;;
47737;SDS011;33502;47.182;27.506;2022-12-24T00:06:18;106.40;;;44.20;;
47737;SDS011;33502;47.182;27.506;2022-12-24T00:08:46;97.55;;;44.80;;
47737;SDS011;33502;47.182;27.506;2022-12-24T00:11:12;101.47;;;44.78;;
47737;SDS011;33502;47.182;27.506;2022-12-24T00:13:38;96.50;;;43.15;;
47737;SDS011;33502;47.182;27.506;2022-12-24T00:16:05;101.10;;;43.75;;
47737;SDS011;33502;47.182;27.506;2022-12-24T00:18:31;105.35;;;44.83;;
47737;SDS011;33502;47.182;27.506;2022-12-24T00:20:56;103.10;;;45.45;;
47737;SDS011;33502;47.182;27.506;2022-12-24T00:23:22;106.55;;;44.90;;
47737;SDS011;33502;47.182;27.506;2022-12-24T00:25:48;94.65;;;44.00;;
47737;SDS011;33502;47.182;27.506;2022-12-24T00:28:14;97.53;;;43.13;;
47737;SDS011;33502;47.182;27.506;2022-12-24T00:30:40;99.38;;;42.30;;
47737;SDS011;33502;47.182;27.506;2022-12-24T00:33:07;107.43;;;45.90;;
47737;SDS011;33502;47.182;27.506;2022-12-24T00:35:33;109.20;;;45.85;;
47737;SDS011;33502;47.182;27.506;2022-12-24T00:37:59;112.10;;;46.55;;
47737;SDS011;33502;47.182;27.506;2022-12-24T00:40:25;105.20;;;45.95;;
47737;SDS011;33502;47.182;27.506;2022-12-24T00:42:51;107.65;;;47.42;;
47737;SDS011;33502;47.182;27.506;2022-12-24T00:45:17;102.45;;;44.60;;
47737;SDS011;33502;47.182;27.506;2022-12-24T00:47:42;103.45;;;45.00;;
47737;SDS011;33502;47.182;27.506;2022-12-24T00:50:08;97.15;;;42.08;;
47737;SDS011;33502;47.182;27.506;2022-12-24T00:52:34;93.72;;;41.90;;
47737;SDS011;33502;47.182;27.506;2022-12-24T00:55:00;105.50;;;43.75;;
47737;SDS011;33502;47.182;27.506;2022-12-24T00:57:26;108.25;;;44.75;;
47737;SDS011;33502;47.182;27.506;2022-12-24T00:59:51;105.88;;;44.17;;
47737;SDS011;33502;47.182;27.506;2022-12-24T01:02:17;104.93;;;44.78;;
47737;SDS011;33502;47.182;27.506;2022-12-24T01:04:43;112.43;;;43.92;;
47737;SDS011;33502;47.182;27.506;2022-12-24T01:07:52;106.95;;;43.75;;
47737;SDS011;33502;47.182;27.506;2022-12-24T01:10:18;102.90;;;41.95;;
47737;SDS011;33502;47.182;27.506;2022-12-24T01:12:44;118.88;;;46.25;;
47737;SDS011;33502;47.182;27.506;2022-12-24T01:15:11;120.28;;;47.03;;
47737;SDS011;33502;47.182;27.506;2022-12-24T01:17:38;113.32;;;44.42;;
47737;SDS011;33502;47.182;27.506;2022-12-24T01:20:04;113.35;;;45.45;;
47737;SDS011;33502;47.182;27.506;2022-12-24T01:22:31;115.47;;;46.08;;
47737;SDS011;33502;47.182;27.506;2022-12-24T01:24:57;114.55;;;46.42;;
47737;SDS011;33502;47.182;27.506;2022-12-24T01:27:23;127.07;;;46.08;;
47737;SDS011;33502;47.182;27.506;2022-12-24T01:29:49;112.10;;;44.08;;
47737;SDS011;33502;47.182;27.506;2022-12-24T01:32:15;113.00;;;44.63;;
47737;SDS011;33502;47.182;27.506;2022-12-24T01:34:40;120.07;;;45.85;;
47737;SDS011;33502;47.182;27.506;2022-12-24T01:37:06;106.78;;;45.20;;
47737;SDS011;33502;47.182;27.506;2022-12-24T01:39:32;111.10;;;45.78;;
47737;SDS011;33502;47.182;27.506;2022-12-24T01:41:58;107.15;;;45.67;;
47737;SDS011;33502;47.182;27.506;2022-12-24T01:44:43;114.18;;;47.25;;
47737;SDS011;33502;47.182;27.506;2022-12-24T01:47:25;112.95;;;45.67;;
47737;SDS011;33502;47.182;27.506;2022-12-24T01:49:57;105.93;;;43.97;;
47737;SDS011;33502;47.182;27.506;2022-12-24T01:52:33;117.10;;;45.88;;
47737;SDS011;33502;47.182;27.506;2022-12-24T01:55:05;109.95;;;46.08;;
47737;SDS011;33502;47.182;27.506;2022-12-24T01:57:48;109.43;;;44.17;;
47737;SDS011;33502;47.182;27.506;2022-12-24T02:00:19;103.93;;;43.08;;
47737;SDS011;33502;47.182;27.506;2022-12-24T02:02:47;108.03;;;42.70;;
47737;SDS011;33502;47.182;27.506;2022-12-24T02:07:41;106.95;;;43.28;;
47737;SDS011;33502;47.182;27.506;2022-12-24T02:10:10;96.78;;;41.38;;
47737;SDS011;33502;47.182;27.506;2022-12-24T02:12:37;107.97;;;44.85;;
47737;SDS011;33502;47.182;27.506;2022-12-24T02:15:05;100.88;;;40.72;;
47737;SDS011;33502;47.182;27.506;2022-12-24T02:31:09;90.90;;;39.83;;
47737;SDS011;33502;47.182;27.506;2022-12-24T02:34:26;89.15;;;39.42;;
47737;SDS011;33502;47.182;27.506;2022-12-24T02:37:09;92.00;;;38.92;;
47737;SDS011;33502;47.182;27.506;2022-12-24T02:39:51;90.43;;;39.88;;
47737;SDS011;33502;47.182;27.506;2022-12-24T02:42:34;92.28;;;39.88;;
47737;SDS011;33502;47.182;27.506;2022-12-24T02:45:09;96.35;;;41.63;;
47737;SDS011;33502;47.182;27.506;2022-12-24T02:47:39;97.95;;;41.05;;
47737;SDS011;33502;47.182;27.506;2022-12-24T02:50:07;91.95;;;40.13;;
47737;SDS011;33502;47.182;27.506;2022-12-24T02:52:38;97.32;;;41.30;;
47737;SDS011;33502;47.182;27.506;2022-12-24T02:55:08;96.88;;;43.70;;
47737;SDS011;33502;47.182;27.506;2022-12-24T03:00:33;104.40;;;43.58;;
47737;SDS011;33502;47.182;27.506;2022-12-24T03:06:20;93.82;;;41.15;;
47737;SDS011;33502;47.182;27.506;2022-12-24T03:09:15;91.82;;;40.25;;
47737;SDS011;33502;47.182;27.506;2022-12-24T03:11:47;89.75;;;38.58;;
47737;SDS011;33502;47.182;27.506;2022-12-24T03:14:19;98.47;;;39.28;;
47737;SDS011;33502;47.182;27.506;2022-12-24T03:16:47;93.45;;;40.45;;
47737;SDS011;33502;47.182;27.506;2022-12-24T03:19:13;85.93;;;40.22;;
47737;SDS011;33502;47.182;27.506;2022-12-24T03:21:40;96.65;;;41.03;;
47737;SDS011;33502;47.182;27.506;2022-12-24T03:24:07;97.20;;;40.67;;
47737;SDS011;33502;47.182;27.506;2022-12-24T03:26:34;89.93;;;39.42;;
47737;SDS011;33502;47.182;27.506;2022-12-24T03:29:03;84.75;;;40.28;;
47737;SDS011;33502;47.182;27.506;2022-12-24T03:31:45;92.68;;;39.47;;
47737;SDS011;33502;47.182;27.506;2022-12-24T03:34:12;93.57;;;40.00;;
47737;SDS011;33502;47.182;27.506;2022-12-24T03:36:40;98.28;;;41.00;;
47737;SDS011;33502;47.182;27.506;2022-12-24T03:39:06;95.18;;;41.80;;
47737;SDS011;33502;47.182;27.506;2022-12-24T03:41:34;99.47;;;43.63;;
47737;SDS011;33502;47.182;27.506;2022-12-24T03:44:00;103.38;;;41.60;;
47737;SDS011;33502;47.182;27.506;2022-12-24T03:46:26;95.32;;;42.95;;
47737;SDS011;33502;47.182;27.506;2022-12-24T03:48:52;100.28;;;43.00;;
47737;SDS011;33502;47.182;27.506;2022-12-24T03:51:20;96.18;;;43.28;;
47737;SDS011;33502;47.182;27.506;2022-12-24T03:53:48;96.72;;;43.28;;
47737;SDS011;33502;47.182;27.506;2022-12-24T03:56:16;104.82;;;45.00;;
47737;SDS011;33502;47.182;27.506;2022-12-24T03:58:41;101.43;;;43.25;;
47737;SDS011;33502;47.182;27.506;2022-12-24T04:01:07;96.60;;;42.13;;
47737;SDS011;33502;47.182;27.506;2022-12-24T04:03:33;102.10;;;43.03;;
47737;SDS011;33502;47.182;27.506;2022-12-24T04:06:02;98.30;;;43.58;;
47737;SDS011;33502;47.182;27.506;2022-12-24T04:08:29;99.45;;;43.03;;
47737;SDS011;33502;47.182;27.506;2022-12-24T04:10:55;96.60;;;41.28;;
47737;SDS011;33502;47.182;27.506;2022-12-24T04:13:21;95.03;;;43.58;;
47737;SDS011;33502;47.182;27.506;2022-12-24T04:15:55;103.72;;;43.25;;
47737;SDS011;33502;47.182;27.506;2022-12-24T04:18:24;92.43;;;42.50;;
47737;SDS011;33502;47.182;27.506;2022-12-24T04:20:51;105.03;;;43.03;;
47737;SDS011;33502;47.182;27.506;2022-12-24T04:23:16;97.50;;;41.00;;
47737;SDS011;33502;47.182;27.506;2022-12-24T04:25:42;94.10;;;39.67;;
47737;SDS011;33502;47.182;27.506;2022-12-24T04:28:08;96.68;;;41.25;;
47737;SDS011;33502;47.182;27.506;2022-12-24T04:30:34;100.20;;;41.63;;
47737;SDS011;33502;47.182;27.506;2022-12-24T04:32:59;96.22;;;41.13;;
47737;SDS011;33502;47.182;27.506;2022-12-24T04:35:25;104.18;;;44.75;;
47737;SDS011;33502;47.182;27.506;2022-12-24T04:37:51;99.30;;;42.63;;
47737;SDS011;33502;47.182;27.506;2022-12-24T04:40:17;105.38;;;42.55;;
47737;SDS011;33502;47.182;27.506;2022-12-24T04:42:43;95.80;;;41.70;;
47737;SDS011;33502;47.182;27.506;2022-12-24T04:45:09;94.97;;;42.63;;
47737;SDS011;33502;47.182;27.506;2022-12-24T04:47:34;99.78;;;42.83;;
47737;SDS011;33502;47.182;27.506;2022-12-24T04:50:00;103.05;;;41.97;;
47737;SDS011;33502;47.182;27.506;2022-12-24T04:52:26;101.03;;;43.30;;
47737;SDS011;33502;47.182;27.506;2022-12-24T04:54:52;101.43;;;42.00;;
47737;SDS011;33502;47.182;27.506;2022-12-24T04:57:18;92.50;;;42.17;;
47737;SDS011;33502;47.182;27.506;2022-12-24T04:59:44;94.78;;;41.78;;
47737;SDS011;33502;47.182;27.506;2022-12-24T05:02:09;91.53;;;42.95;;
47737;SDS011;33502;47.182;27.506;2022-12-24T05:04:35;94.57;;;41.65;;
47737;SDS011;33502;47.182;27.506;2022-12-24T05:07:01;93.72;;;40.38;;
47737;SDS011;33502;47.182;27.506;2022-12-24T05:09:26;94.22;;;43.25;;
47737;SDS011;33502;47.182;27.506;2022-12-24T05:11:52;89.97;;;41.22;;
47737;SDS011;33502;47.182;27.506;2022-12-24T05:14:18;95.63;;;41.30;;
47737;SDS011;33502;47.182;27.506;2022-12-24T05:16:44;83.55;;;39.72;;
47737;SDS011;33502;47.182;27.506;2022-12-24T05:19:09;90.47;;;39.67;;
47737;SDS011;33502;47.182;27.506;2022-12-24T05:21:35;96.18;;;41.10;;
47737;SDS011;33502;47.182;27.506;2022-12-24T05:24:01;98.70;;;43.28;;
47737;SDS011;33502;47.182;27.506;2022-12-24T05:27:05;102.50;;;46.15;;
47737;SDS011;33502;47.182;27.506;2022-12-24T05:29:31;100.38;;;45.38;;
47737;SDS011;33502;47.182;27.506;2022-12-24T05:31:57;105.30;;;46.85;;
47737;SDS011;33502;47.182;27.506;2022-12-24T05:34:22;96.97;;;46.08;;
47737;SDS011;33502;47.182;27.506;2022-12-24T05:36:48;101.47;;;45.22;;
47737;SDS011;33502;47.182;27.506;2022-12-24T05:39:15;103.93;;;45.85;;
47737;SDS011;33502;47.182;27.506;2022-12-24T05:41:42;97.78;;;44.60;;
47737;SDS011;33502;47.182;27.506;2022-12-24T05:44:08;102.32;;;45.50;;
47737;SDS011;33502;47.182;27.506;2022-12-24T05:46:34;104.50;;;44.25;;
47737;SDS011;33502;47.182;27.506;2022-12-24T05:48:59;90.95;;;42.78;;
47737;SDS011;33502;47.182;27.506;2022-12-24T05:51:25;96.10;;;45.88;;
47737;SDS011;33502;47.182;27.506;2022-12-24T05:53:51;110.30;;;47.22;;
47737;SDS011;33502;47.182;27.506;2022-12-24T05:56:20;103.53;;;46.58;;
47737;SDS011;33502;47.182;27.506;2022-12-24T05:58:47;103.88;;;46.28;;
47737;SDS011;33502;47.182;27.506;2022-12-24T06:01:14;95.88;;;44.28;;
47737;SDS011;33502;47.182;27.506;2022-12-24T06:03:40;106.45;;;44.55;;
47737;SDS011;33502;47.182;27.506;2022-12-24T06:06:10;95.80;;;44.30;;
47737;SDS011;33502;47.182;27.506;2022-12-24T06:08:38;93.00;;;43.50;;
47737;SDS011;33502;47.182;27.506;2022-12-24T06:11:06;88.28;;;41.92;;
47737;SDS011;33502;47.182;27.506;2022-12-24T06:13:34;85.80;;;39.67;;
47737;SDS011;33502;47.182;27.506;2022-12-24T06:16:00;82.60;;;40.00;;
47737;SDS011;33502;47.182;27.506;2022-12-24T06:18:28;65.28;;;34.47;;
47737;SDS011;33502;47.182;27.506;2022-12-24T06:20:55;71.70;;;34.15;;
47737;SDS011;33502;47.182;27.506;2022-12-24T06:23:22;62.55;;;35.03;;
47737;SDS011;33502;47.182;27.506;2022-12-24T06:25:49;68.13;;;34.78;;
47737;SDS011;33502;47.182;27.506;2022-12-24T06:28:15;61.38;;;31.40;;
47737;SDS011;33502;47.182;27.506;2022-12-24T06:30:45;65.90;;;33.42;;
47737;SDS011;33502;47.182;27.506;2022-12-24T06:33:12;61.67;;;31.80;;
47737;SDS011;33502;47.182;27.506;2022-12-24T06:35:38;58.05;;;33.20;;
47737;SDS011;33502;47.182;27.506;2022-12-24T06:38:04;60.53;;;32.65;;
47737;SDS011;33502;47.182;27.506;2022-12-24T06:40:29;61.63;;;33.40;;
47737;SDS011;33502;47.182;27.506;2022-12-24T06:42:55;57.70;;;30.77;;
47737;SDS011;33502;47.182;27.506;2022-12-24T06:45:21;57.78;;;29.40;;
47737;SDS011;33502;47.182;27.506;2022-12-24T06:47:46;58.42;;;30.95;;
47737;SDS011;33502;47.182;27.506;2022-12-24T06:50:12;60.97;;;32.83;;
47737;SDS011;33502;47.182;27.506;2022-12-24T06:52:38;54.63;;;29.73;;
47737;SDS011;33502;47.182;27.506;2022-12-24T06:55:04;53.28;;;29.20;;
47737;SDS011;33502;47.182;27.506;2022-12-24T06:57:30;49.65;;;26.98;;
47737;SDS011;33502;47.182;27.506;2022-12-24T06:59:58;48.40;;;28.15;;
47737;SDS011;33502;47.182;27.506;2022-12-24T07:02:25;48.33;;;28.95;;
47737;SDS011;33502;47.182;27.506;2022-12-24T07:04:50;46.45;;;27.80;;
47737;SDS011;33502;47.182;27.506;2022-12-24T07:07:16;45.95;;;28.88;;
47737;SDS011;33502;47.182;27.506;2022-12-24T07:09:42;44.30;;;27.33;;
47737;SDS011;33502;47.182;27.506;2022-12-24T07:12:08;46.53;;;28.40;;
47737;SDS011;33502;47.182;27.506;2022-12-24T07:14:33;45.60;;;29.60;;
47737;SDS011;33502;47.182;27.506;2022-12-24T07:16:59;44.60;;;29.00;;
47737;SDS011;33502;47.182;27.506;2022-12-24T07:19:25;45.58;;;28.33;;
47737;SDS011;33502;47.182;27.506;2022-12-24T07:21:51;46.40;;;30.15;;
47737;SDS011;33502;47.182;27.506;2022-12-24T07:24:17;82.40;;;51.03;;
47737;SDS011;33502;47.182;27.506;2022-12-24T07:26:42;53.70;;;34.13;;
47737;SDS011;33502;47.182;27.506;2022-12-24T07:29:08;44.58;;;31.77;;
47737;SDS011;33502;47.182;27.506;2022-12-24T07:31:34;48.55;;;31.60;;
47737;SDS011;33502;47.182;27.506;2022-12-24T07:33:59;43.22;;;30.05;;
47737;SDS011;33502;47.182;27.506;2022-12-24T07:36:25;48.42;;;31.30;;
47737;SDS011;33502;47.182;27.506;2022-12-24T07:38:52;44.05;;;30.20;;
47737;SDS011;33502;47.182;27.506;2022-12-24T07:41:18;42.40;;;29.75;;
47737;SDS011;33502;47.182;27.506;2022-12-24T07:43:44;43.15;;;29.48;;
47737;SDS011;33502;47.182;27.506;2022-12-24T07:46:10;52.00;;;34.08;;
47737;SDS011;33502;47.182;27.506;2022-12-24T07:48:36;54.05;;;36.72;;
47737;SDS011;33502;47.182;27.506;2022-12-24T07:51:03;43.83;;;30.73;;
47737;SDS011;33502;47.182;27.506;2022-12-24T07:53:29;46.90;;;33.75;;
47737;SDS011;33502;47.182;27.506;2022-12-24T07:55:55;61.42;;;38.50;;
47737;SDS011;33502;47.182;27.506;2022-12-24T07:58:22;44.35;;;30.77;;
47737;SDS011;33502;47.182;27.506;2022-12-24T08:00:48;44.92;;;30.85;;
47737;SDS011;33502;47.182;27.506;2022-12-24T08:03:19;55.50;;;37.30;;
47737;SDS011;33502;47.182;27.506;2022-12-24T08:05:46;49.47;;;35.03;;
47737;SDS011;33502;47.182;27.506;2022-12-24T08:08:13;49.42;;;33.72;;
47737;SDS011;33502;47.182;27.506;2022-12-24T08:10:39;45.15;;;30.52;;
47737;SDS011;33502;47.182;27.506;2022-12-24T08:13:06;52.15;;;33.47;;
47737;SDS011;33502;47.182;27.506;2022-12-24T08:15:32;48.20;;;34.20;;
47737;SDS011;33502;47.182;27.506;2022-12-24T08:17:58;48.92;;;33.13;;
47737;SDS011;33502;47.182;27.506;2022-12-24T08:20:24;46.28;;;32.50;;
47737;SDS011;33502;47.182;27.506;2022-12-24T08:22:49;46.50;;;31.15;;
47737;SDS011;33502;47.182;27.506;2022-12-24T08:25:15;51.97;;;34.28;;
47737;SDS011;33502;47.182;27.506;2022-12-24T08:27:41;47.05;;;31.27;;
47737;SDS011;33502;47.182;27.506;2022-12-24T08:30:07;49.92;;;35.33;;
47737;SDS011;33502;47.182;27.506;2022-12-24T08:32:33;46.95;;;31.77;;
47737;SDS011;33502;47.182;27.506;2022-12-24T08:34:59;48.95;;;33.45;;
47737;SDS011;33502;47.182;27.506;2022-12-24T08:37:24;44.50;;;30.73;;
47737;SDS011;33502;47.182;27.506;2022-12-24T08:39:50;52.08;;;35.33;;
47737;SDS011;33502;47.182;27.506;2022-12-24T08:42:16;59.17;;;37.88;;
47737;SDS011;33502;47.182;27.506;2022-12-24T08:44:42;51.97;;;35.90;;
47737;SDS011;33502;47.182;27.506;2022-12-24T08:47:07;58.30;;;36.63;;
47737;SDS011;33502;47.182;27.506;2022-12-24T08:49:33;47.50;;;30.67;;
47737;SDS011;33502;47.182;27.506;2022-12-24T08:51:59;46.15;;;32.50;;
47737;SDS011;33502;47.182;27.506;2022-12-24T08:54:25;48.08;;;33.60;;
47737;SDS011;33502;47.182;27.506;2022-12-24T08:56:50;40.92;;;28.05;;
47737;SDS011;33502;47.182;27.506;2022-12-24T08:59:16;46.00;;;30.00;;
47737;SDS011;33502;47.182;27.506;2022-12-24T09:01:42;43.78;;;28.20;;
47737;SDS011;33502;47.182;27.506;2022-12-24T09:04:08;41.80;;;27.92;;
47737;SDS011;33502;47.182;27.506;2022-12-24T09:06:34;42.08;;;26.83;;
47737;SDS011;33502;47.182;27.506;2022-12-24T09:09:00;53.08;;;32.13;;
47737;SDS011;33502;47.182;27.506;2022-12-24T09:11:27;46.75;;;31.42;;
47737;SDS011;33502;47.182;27.506;2022-12-24T09:13:53;47.92;;;31.63;;
47737;SDS011;33502;47.182;27.506;2022-12-24T09:16:19;57.85;;;36.55;;
47737;SDS011;33502;47.182;27.506;2022-12-24T09:18:45;45.58;;;29.80;;
47737;SDS011;33502;47.182;27.506;2022-12-24T09:21:12;43.80;;;28.45;;
47737;SDS011;33502;47.182;27.506;2022-12-24T09:23:40;61.90;;;37.20;;
47737;SDS011;33502;47.182;27.506;2022-12-24T09:26:12;39.15;;;26.90;;
47737;SDS011;33502;47.182;27.506;2022-12-24T09:28:40;35.75;;;23.60;;
47737;SDS011;33502;47.182;27.506;2022-12-24T09:31:06;82.25;;;43.90;;
47737;SDS011;33502;47.182;27.506;2022-12-24T09:33:35;48.35;;;30.05;;
47737;SDS011;33502;47.182;27.506;2022-12-24T09:36:03;48.28;;;30.98;;
47737;SDS011;33502;47.182;27.506;2022-12-24T09:38:29;50.65;;;31.33;;
47737;SDS011;33502;47.182;27.506;2022-12-24T09:40:56;42.67;;;26.83;;
47737;SDS011;33502;47.182;27.506;2022-12-24T09:43:24;46.67;;;27.02;;
47737;SDS011;33502;47.182;27.506;2022-12-24T09:48:56;62.83;;;33.72;;
47737;SDS011;33502;47.182;27.506;2022-12-24T09:51:28;43.72;;;26.00;;
47737;SDS011;33502;47.182;27.506;2022-12-24T09:54:02;42.20;;;25.85;;
47737;SDS011;33502;47.182;27.506;2022-12-24T09:56:38;42.80;;;26.33;;
47737;SDS011;33502;47.182;27.506;2022-12-24T09:59:12;43.10;;;27.63;;
47737;SDS011;33502;47.182;27.506;2022-12-24T10:01:40;41.30;;;26.58;;
47737;SDS011;33502;47.182;27.506;2022-12-24T10:04:11;45.22;;;29.48;;
47737;SDS011;33502;47.182;27.506;2022-12-24T10:09:21;48.13;;;29.67;;
47737;SDS011;33502;47.182;27.506;2022-12-24T10:17:38;56.10;;;32.83;;
47737;SDS011;33502;47.182;27.506;2022-12-24T10:23:23;85.68;;;43.75;;
47737;SDS011;33502;47.182;27.506;2022-12-24T10:26:11;50.35;;;28.38;;
47737;SDS011;33502;47.182;27.506;2022-12-24T10:29:23;49.35;;;27.55;;
47737;SDS011;33502;47.182;27.506;2022-12-24T10:31:54;56.90;;;33.85;;
47737;SDS011;33502;47.182;27.506;2022-12-24T10:34:42;66.55;;;35.92;;
47737;SDS011;33502;47.182;27.506;2022-12-24T10:37:14;60.80;;;36.25;;
47737;SDS011;33502;47.182;27.506;2022-12-24T10:39:41;59.40;;;33.15;;
47737;SDS011;33502;47.182;27.506;2022-12-24T10:42:07;64.50;;;37.17;;
47737;SDS011;33502;47.182;27.506;2022-12-24T10:44:35;89.32;;;47.35;;
47737;SDS011;33502;47.182;27.506;2022-12-24T10:47:01;57.35;;;31.35;;
47737;SDS011;33502;47.182;27.506;2022-12-24T10:49:32;54.45;;;30.50;;
47737;SDS011;33502;47.182;27.506;2022-12-24T10:52:05;56.85;;;33.78;;
47737;SDS011;33502;47.182;27.506;2022-12-24T10:57:42;54.13;;;29.58;;
47737;SDS011;33502;47.182;27.506;2022-12-24T11:00:18;61.35;;;33.22;;
47737;SDS011;33502;47.182;27.506;2022-12-24T11:02:45;57.90;;;31.77;;
47737;SDS011;33502;47.182;27.506;2022-12-24T11:05:31;48.13;;;31.20;;
47737;SDS011;33502;47.182;27.506;2022-12-24T11:07:59;58.83;;;32.53;;
47737;SDS011;33502;47.182;27.506;2022-12-24T11:10:26;65.32;;;36.10;;
47737;SDS011;33502;47.182;27.506;2022-12-24T11:12:52;55.40;;;32.17;;
47737;SDS011;33502;47.182;27.506;2022-12-24T11:15:19;79.00;;;40.30;;
47737;SDS011;33502;47.182;27.506;2022-12-24T11:17:52;61.83;;;35.55;;
47737;SDS011;33502;47.182;27.506;2022-12-24T11:20:26;62.83;;;35.72;;
47737;SDS011;33502;47.182;27.506;2022-12-24T11:22:54;57.05;;;32.85;;
47737;SDS011;33502;47.182;27.506;2022-12-24T11:25:22;53.08;;;29.25;;
47737;SDS011;33502;47.182;27.506;2022-12-24T11:27:53;57.97;;;32.95;;
47737;SDS011;33502;47.182;27.506;2022-12-24T11:30:21;60.90;;;33.88;;
47737;SDS011;33502;47.182;27.506;2022-12-24T11:32:50;134.35;;;73.45;;
47737;SDS011;33502;47.182;27.506;2022-12-24T11:35:40;91.35;;;49.25;;
47737;SDS011;33502;47.182;27.506;2022-12-24T11:38:11;100.22;;;58.72;;
47737;SDS011;33502;47.182;27.506;2022-12-24T11:40:43;70.70;;;38.92;;
47737;SDS011;33502;47.182;27.506;2022-12-24T11:43:15;69.75;;;40.22;;
47737;SDS011;33502;47.182;27.506;2022-12-24T11:48:29;63.50;;;37.05;;
47737;SDS011;33502;47.182;27.506;2022-12-24T11:53:29;69.30;;;40.15;;
47737;SDS011;33502;47.182;27.506;2022-12-24T11:56:04;115.40;;;71.28;;
47737;SDS011;33502;47.182;27.506;2022-12-24T11:58:41;64.75;;;36.88;;
47737;SDS011;33502;47.182;27.506;2022-12-24T12:01:29;64.50;;;37.05;;
47737;SDS011;33502;47.182;27.506;2022-12-24T12:04:09;69.35;;;38.35;;
47737;SDS011;33502;47.182;27.506;2022-12-24T12:09:37;61.67;;;35.03;;
47737;SDS011;33502;47.182;27.506;2022-12-24T12:12:13;65.05;;;35.95;;
47737;SDS011;33502;47.182;27.506;2022-12-24T12:17:35;63.38;;;34.38;;
47737;SDS011;33502;47.182;27.506;2022-12-24T12:25:42;61.47;;;39.38;;
47737;SDS011;33502;47.182;27.506;2022-12-24T12:33:52;68.10;;;39.53;;
47737;SDS011;33502;47.182;27.506;2022-12-24T12:36:31;69.03;;;39.17;;
47737;SDS011;33502;47.182;27.506;2022-12-24T12:39:04;63.65;;;36.58;;
47737;SDS011;33502;47.182;27.506;2022-12-24T12:52:52;61.65;;;36.38;;
47737;SDS011;33502;47.182;27.506;2022-12-24T12:58:26;63.80;;;37.78;;
47737;SDS011;33502;47.182;27.506;2022-12-24T13:01:07;78.43;;;45.40;;
47737;SDS011;33502;47.182;27.506;2022-12-24T13:25:36;86.00;;;50.47;;
47737;SDS011;33502;47.182;27.506;2022-12-24T13:30:48;86.90;;;48.75;;
47737;SDS011;33502;47.182;27.506;2022-12-24T13:49:26;100.60;;;53.75;;
47737;SDS011;33502;47.182;27.506;2022-12-24T13:54:36;85.53;;;48.78;;
47737;SDS011;33502;47.182;27.506;2022-12-24T14:00:25;92.90;;;52.20;;
47737;SDS011;33502;47.182;27.506;2022-12-24T14:05:43;95.57;;;54.85;;
47737;SDS011;33502;47.182;27.506;2022-12-24T14:08:24;80.45;;;46.22;;
47737;SDS011;33502;47.182;27.506;2022-12-24T14:18:49;79.63;;;45.83;;
47737;SDS011;33502;47.182;27.506;2022-12-24T14:21:37;86.25;;;47.28;;
47737;SDS011;33502;47.182;27.506;2022-12-24T14:24:12;97.40;;;51.90;;
47737;SDS011;33502;47.182;27.506;2022-12-24T14:26:49;87.45;;;49.63;;
47737;SDS011;33502;47.182;27.506;2022-12-24T14:29:31;85.15;;;47.92;;
47737;SDS011;33502;47.182;27.506;2022-12-24T14:32:00;71.47;;;41.17;;
47737;SDS011;33502;47.182;27.506;2022-12-24T14:34:29;91.38;;;50.13;;
47737;SDS011;33502;47.182;27.506;2022-12-24T14:36:56;90.45;;;52.15;;
47737;SDS011;33502;47.182;27.506;2022-12-24T14:39:29;66.15;;;39.03;;
47737;SDS011;33502;47.182;27.506;2022-12-24T14:42:01;89.35;;;50.13;;
47737;SDS011;33502;47.182;27.506;2022-12-24T14:44:46;99.82;;;53.42;;
47737;SDS011;33502;47.182;27.506;2022-12-24T14:55:44;117.38;;;65.68;;
47737;SDS011;33502;47.182;27.506;2022-12-24T15:00:46;104.63;;;59.35;;
47737;SDS011;33502;47.182;27.506;2022-12-24T15:03:14;96.43;;;51.72;;
47737;SDS011;33502;47.182;27.506;2022-12-24T15:05:42;90.57;;;50.63;;
47737;SDS011;33502;47.182;27.506;2022-12-24T15:08:11;94.45;;;52.45;;
47737;SDS011;33502;47.182;27.506;2022-12-24T15:10:45;96.25;;;56.28;;
47737;SDS011;33502;47.182;27.506;2022-12-24T15:16:02;91.05;;;48.83;;
47737;SDS011;33502;47.182;27.506;2022-12-24T15:18:31;95.85;;;52.25;;
47737;SDS011;33502;47.182;27.506;2022-12-24T15:21:00;89.53;;;49.00;;
47737;SDS011;33502;47.182;27.506;2022-12-24T15:23:32;92.15;;;51.83;;
47737;SDS011;33502;47.182;27.506;2022-12-24T15:26:23;118.95;;;70.32;;
47737;SDS011;33502;47.182;27.506;2022-12-24T15:28:50;90.40;;;49.67;;
47737;SDS011;33502;47.182;27.506;2022-12-24T15:31:17;91.15;;;52.22;;
47737;SDS011;33502;47.182;27.506;2022-12-24T15:33:45;79.35;;;47.38;;
47737;SDS011;33502;47.182;27.506;2022-12-24T15:36:15;85.45;;;47.45;;
47737;SDS011;33502;47.182;27.506;2022-12-24T15:38:49;78.50;;;44.33;;
47737;SDS011;33502;47.182;27.506;2022-12-24T15:41:23;79.25;;;42.97;;
47737;SDS011;33502;47.182;27.506;2022-12-24T15:43:51;74.20;;;42.17;;
47737;SDS011;33502;47.182;27.506;2022-12-24T15:46:19;79.85;;;45.75;;
47737;SDS011;33502;47.182;27.506;2022-12-24T15:48:50;84.95;;;51.17;;
47737;SDS011;33502;47.182;27.506;2022-12-24T15:51:36;86.88;;;48.53;;
47737;SDS011;33502;47.182;27.506;2022-12-24T15:54:04;92.15;;;49.70;;
47737;SDS011;33502;47.182;27.506;2022-12-24T16:01:41;105.03;;;54.40;;
47737;SDS011;33502;47.182;27.506;2022-12-24T16:04:12;110.47;;;57.15;;
47737;SDS011;33502;47.182;27.506;2022-12-24T16:09:39;106.78;;;58.30;;
47737;SDS011;33502;47.182;27.506;2022-12-24T16:12:26;119.35;;;64.25;;
47737;SDS011;33502;47.182;27.506;2022-12-24T16:14:53;122.47;;;67.15;;
47737;SDS011;33502;47.182;27.506;2022-12-24T16:17:24;103.50;;;57.38;;
47737;SDS011;33502;47.182;27.506;2022-12-24T16:19:53;111.78;;;63.50;;
47737;SDS011;33502;47.182;27.506;2022-12-24T16:22:22;105.53;;;58.25;;
47737;SDS011;33502;47.182;27.506;2022-12-24T16:25:00;121.13;;;63.72;;
47737;SDS011;33502;47.182;27.506;2022-12-24T16:27:39;118.55;;;62.65;;
47737;SDS011;33502;47.182;27.506;2022-12-24T16:30:05;126.60;;;65.88;;
47737;SDS011;33502;47.182;27.506;2022-12-24T16:32:33;108.45;;;58.78;;
47737;SDS011;33502;47.182;27.506;2022-12-24T16:35:01;121.68;;;66.13;;
47737;SDS011;33502;47.182;27.506;2022-12-24T16:37:29;117.03;;;63.03;;
47737;SDS011;33502;47.182;27.506;2022-12-24T16:39:54;132.57;;;69.82;;
47737;SDS011;33502;47.182;27.506;2022-12-24T16:42:21;131.25;;;70.40;;
47737;SDS011;33502;47.182;27.506;2022-12-24T16:45:05;123.22;;;62.67;;
47737;SDS011;33502;47.182;27.506;2022-12-24T16:47:33;185.63;;;92.78;;
47737;SDS011;33502;47.182;27.506;2022-12-24T16:50:00;156.93;;;79.95;;
47737;SDS011;33502;47.182;27.506;2022-12-24T16:52:31;151.23;;;78.07;;
47737;SDS011;33502;47.182;27.506;2022-12-24T16:55:00;120.55;;;67.07;;